ADDS METAR Data INFO
IDs: Format: Raw Decoded Include TAF

Data at: 0040 UTC 23 Oct 2017

KLUL 230035Z AUTO 12007KT 10SM OVC006 20/20 A2996 RMK AO2 T01980198
KLUL 230015Z AUTO 12007KT 10SM OVC006 20/20 A2996 RMK AO2 T01980198
KLUL 222355Z AUTO 12010KT 10SM OVC006 20/20 A2995 RMK AO2 T01980198
KLUL 222335Z AUTO 11010KT 10SM OVC006 20/20 A2996 RMK AO2 T02000200
KLUL 222315Z AUTO 10009KT 10SM BKN004 BKN012 OVC100 21/21 A2997 RMK AO2 T02050205
KLUL 222255Z AUTO 12005KT 10SM SCT006 SCT016 OVC100 21/21 A2999 RMK AO2 T02100210
KLUL 222235Z AUTO 13003KT 10SM SCT006 BKN017 OVC090 21/21 A3001 RMK AO2 T02110211
KLUL 222215Z AUTO 19003KT 10SM SCT006 BKN017 OVC070 21/21 A3002 RMK AO2 T02110211
KLUL 222155Z AUTO 00000KT 10SM BKN019 OVC060 21/21 A3002 RMK AO2 T02110211
KLUL 222135Z AUTO 00000KT 10SM SCT006 BKN017 OVC060 21/21 A3003 RMK AO2 T02100210
KLUL 222115Z AUTO 27003KT 10SM SCT006 BKN015 OVC041 21/21 A3003 RMK AO2 T02100210
KLUL 222055Z AUTO 00000KT 10SM SCT023 OVC039 21/21 A3002 RMK AO2 T02100210
KLUL 222035Z AUTO 00000KT 5SM BKN017 BKN023 OVC041 21/21 A3003 RMK AO2 T02070207
KLUL 222015Z AUTO 27003KT 10SM OVC017 21/21 A3004 RMK AO2 T02130211
KLUL 221955Z AUTO 24003KT 10SM OVC017 22/21 A3003 RMK AO2 T02160207
KLUL 221935Z AUTO 00000KT 10SM OVC017 22/21 A3003 RMK AO2 T02160207
KLUL 221915Z AUTO 29004KT 10SM OVC015 22/21 A3003 RMK AO2 T02150208
KLUL 221855Z AUTO 27007KT 10SM OVC013 22/21 A3003 RMK AO2 T02210209
KLUL 221835Z AUTO 30005KT 10SM BKN013 OVC060 22/22 A3004 RMK AO2 T02180217
KLUL 221815Z AUTO 12007KT 10SM SCT060 BKN080 BKN090 22/21 A3004 RMK AO2 T02200209
KLUL 221755Z AUTO 12007KT 10SM SCT080 BKN095 22/21 A3003 RMK AO2 T02150211
KLUL 221735Z AUTO 12008KT 10SM SCT060 BKN080 OVC095 21/21 A3004 RMK AO2 T02050205
KLUL 221715Z AUTO 10009KT 10SM BKN065 BKN095 20/20 A3005 RMK AO2 T01960196
KLUL 221655Z AUTO 10008KT 10SM CLR 19/19 A3006 RMK AO2 P0002 T01880188
KLUL 221635Z AUTO 11007KT 10SM CLR 19/19 A3008 RMK AO2 P0002 T01860186
KLUL 221615Z AUTO 09004KT 10SM SCT005 SCT023 BKN100 19/19 A3008 RMK AO2 P0002 T01850185
KLUL 221555Z AUTO 10008KT 5SM OVC100 19/19 A3007 RMK AO2 P0018 T01850185
KLUL 221535Z AUTO 10006KT 7SM OVC110 19/19 A3009 RMK AO2 P0011 T01860186
KLUL 221515Z AUTO 14007KT 4SM SCT080 SCT085 OVC110 19/19 A3011 RMK AO2 P0005 T01880188
KLUL 221455Z AUTO 00000KT 4SM SCT060 SCT070 OVC100 19/19 A3010 RMK AO2 P0018 T01890189
KLUL 221435Z AUTO 14006KT 7SM SCT045 SCT070 OVC100 19/19 A3011 RMK AO2 P0011 T01920192
KLUL 221415Z AUTO 17010KT 5SM SCT015 BKN037 OVC085 20/20 A3011 RMK AO2 P0007 T01960196
KLUL 221355Z AUTO 23005KT 2 1/2SM SCT015 BKN034 OVC050 20/20 A3011 RMK AO2 VIS 1 1/4V3 P0028 T01950195
KLUL 221335Z AUTO 00000KT 3SM SCT036 BKN049 OVC100 20/20 A3010 RMK AO2 P0008 T01980198
KLUL 221315Z AUTO 00000KT 7SM BKN047 BKN070 OVC100 20/20 A3009 RMK AO2 T02000200
KLUL 221255Z AUTO 00000KT 10SM SCT026 BKN030 OVC045 20/20 A3008 RMK AO2 T01980198
KLUL 221235Z AUTO 00000KT 10SM BKN024 BKN033 OVC048 20/20 A3008 RMK AO2 T01980198
KLUL 221215Z AUTO 00000KT 10SM SCT033 SCT048 20/20 A3008 RMK AO2 T01970197
KLUL 221155Z AUTO 00000KT 10SM CLR 20/20 A3009 RMK AO2 T01960196
KLUL 221135Z AUTO 00000KT 10SM CLR 20/20 A3009 RMK AO2 T01960196
KLUL 221115Z AUTO 13003KT 10SM CLR 20/20 A3009 RMK AO2 T01950195
KLUL 221055Z AUTO 00000KT 10SM CLR 20/20 A3008 RMK AO2 T01950195
KLUL 221035Z AUTO 14004KT 10SM CLR 20/20 A3009 RMK AO2 T01950195
KLUL 221015Z AUTO 00000KT 10SM CLR 19/19 A3009 RMK AO2 T01930193
KLUL 220955Z AUTO 00000KT 10SM CLR 20/20 A3009 RMK AO2 T01950195
KLUL 220935Z AUTO 11003KT 10SM CLR 19/19 A3007 RMK AO2 T01930193
KLUL 220915Z AUTO 11003KT 10SM CLR 20/20 A3007 RMK AO2 T01950195
KLUL 220855Z AUTO 09003KT 10SM CLR 20/20 A3008 RMK AO2 T01950195
KLUL 220835Z AUTO 00000KT 10SM CLR 20/20 A3009 RMK AO2 T01950195
KLUL 220815Z AUTO 00000KT 10SM CLR 19/19 A3008 RMK AO2 T01930193
KLUL 220755Z AUTO 00000KT 10SM CLR 20/20 A3009 RMK AO2 T01970197
KLUL 220735Z AUTO 10003KT 10SM CLR 20/20 A3008 RMK AO2 T01970197
KLUL 220715Z AUTO 00000KT 10SM CLR 20/20 A3009 RMK AO2 T01970197
KLUL 220655Z AUTO 11003KT 10SM CLR 20/20 A3010 RMK AO2 T02010201
KLUL 220635Z AUTO 11004KT 10SM CLR 20/20 A3010 RMK AO2 T02030203
KLUL 220615Z AUTO 09004KT 10SM CLR 21/21 A3011 RMK AO2 T02050205
KLUL 220555Z AUTO 00000KT 10SM CLR 21/21 A3012 RMK AO2 T02100210
KLUL 220535Z AUTO 09003KT 10SM CLR 21/21 A3013 RMK AO2 T02120212
KLUL 220515Z AUTO 10003KT 10SM SCT065 21/21 A3014 RMK AO2 T02120211
KLUL 220455Z AUTO 12003KT 10SM SCT065 22/21 A3014 RMK AO2 T02150206
KLUL 220435Z AUTO 12004KT 10SM CLR 22/20 A3014 RMK AO2 T02170202
KLUL 220415Z AUTO 12005KT 10SM CLR 22/20 A3014 RMK AO2 T02150202
KLUL 220355Z AUTO 00000KT 10SM CLR 22/20 A3015 RMK AO2 T02200199
KLUL 220335Z AUTO 14003KT 10SM CLR 23/20 A3015 RMK AO2 T02270197
KLUL 220315Z AUTO 14004KT 10SM CLR 23/20 A3014 RMK AO2 T02260202
KLUL 220255Z AUTO 13004KT 10SM CLR 23/21 A3013 RMK AO2 T02260208
KLUL 220235Z AUTO 14004KT 10SM CLR 23/21 A3013 RMK AO2 T02300208
KLUL 220215Z AUTO 13007KT 10SM SCT055 23/21 A3011 RMK AO2 T02300213
KLUL 220155Z AUTO 12008KT 10SM SCT029 SCT039 OVC055 23/22 A3010 RMK AO2 T02300221
KLUL 220135Z AUTO 12007KT 10SM BKN029 BKN035 OVC046 23/22 A3010 RMK AO2 T02320222
KLUL 220115Z AUTO 11005KT 10SM BKN029 BKN036 OVC047 23/22 A3010 RMK AO2 T02330216
KLUL 220055Z AUTO 10005KT 10SM BKN029 BKN036 OVC047 24/21 A3010 RMK AO2 T02350211
KLUL 220035Z AUTO 10005KT 10SM BKN032 BKN041 OVC060 24/21 A3010 RMK AO2 T02360210
KLUL 220015Z AUTO 11003KT 10SM BKN034 BKN044 OVC065 24/21 A3010 RMK AO2 T02390210
KLUL 212355Z AUTO 12004KT 10SM SCT034 24/21 A3010 RMK AO2 T02400208
KLUL 212335Z AUTO 13004KT 10SM CLR 24/21 A3009 RMK AO2 T02430206
KLUL 212315Z AUTO 11008KT 10SM CLR 25/21 A3008 RMK AO2 T02450207
KLUL 212255Z AUTO 11006KT 10SM SCT026 25/21 A3007 RMK AO2 T02520205
KLUL 212235Z AUTO 11007KT 10SM SCT026 SCT035 SCT070 26/21 A3008 RMK AO2 T02570205
KLUL 212215Z AUTO 11009KT 10SM SCT070 27/20 A3008 RMK AO2 T02660202
KLUL 212155Z AUTO 12008G14KT 10SM SCT028 SCT038 SCT044 27/20 A3007 RMK AO2 T02670202
KLUL 212135Z AUTO 13009KT 10SM SCT028 SCT033 SCT065 27/20 A3007 RMK AO2 T02700200
KLUL 212115Z AUTO 13009KT 10SM SCT028 SCT055 27/20 A3007 RMK AO2 T02740200
KLUL 212055Z AUTO 12009KT 10SM SCT055 28/20 A3007 RMK AO2 T02760200
KLUL 212035Z AUTO 13008KT 10SM SCT031 SCT046 SCT055 27/20 A3008 RMK AO2 T02740203
KLUL 212015Z AUTO 13008KT 10SM SCT026 SCT040 BKN049 27/20 A3008 RMK AO2 T02660202
KLUL 211955Z AUTO 15007KT 10SM BKN026 BKN035 BKN041 27/20 A3008 RMK AO2 T02700203
KLUL 211935Z AUTO 13006KT 10SM BKN026 OVC034 27/20 A3009 RMK AO2 T02720204
KLUL 211915Z AUTO 13008KT 10SM BKN026 BKN034 BKN043 27/20 A3009 RMK AO2 T02690202
KLUL 211855Z AUTO 14007KT 10SM BKN026 OVC033 27/20 A3010 RMK AO2 T02700203
KLUL 211835Z AUTO 14007KT 10SM BKN026 BKN032 27/20 A3011 RMK AO2 T02650200
KLUL 211815Z AUTO 14008G15KT 10SM BKN022 BKN041 27/20 A3011 RMK AO2 T02660203
KLUL 211755Z AUTO 13009G15KT 10SM OVC022 26/21 A3012 RMK AO2 T02640207
KLUL 211735Z AUTO 15010G14KT 10SM OVC022 26/21 A3012 RMK AO2 T02640210
KLUL 211715Z AUTO 13007KT 10SM OVC020 27/21 A3013 RMK AO2 T02690210
KLUL 211655Z AUTO 14009G14KT 10SM OVC020 26/21 A3014 RMK AO2 T02600209
KLUL 211635Z AUTO 13009G14KT 10SM BKN018 BKN030 OVC037 25/21 A3014 RMK AO2 T02530207
KLUL 211615Z AUTO 13010G14KT 10SM BKN018 BKN023 OVC035 25/21 A3015 RMK AO2 T02500205
KLUL 211555Z AUTO 13007KT 10SM BKN021 BKN028 BKN034 24/20 A3015 RMK AO2 T02400202
KLUL 211535Z AUTO 10004KT 10SM SCT023 BKN031 BKN038 23/20 A3015 RMK AO2 T02260197
KLUL 211515Z AUTO 11004KT 10SM SCT025 BKN033 BKN038 22/19 A3015 RMK AO2 T02160192
KLUL 211455Z AUTO 09003KT 10SM SCT025 SCT035 21/19 A3015 RMK AO2 T02080187
KLUL 211435Z AUTO 10005KT 10SM SCT035 20/18 A3015 RMK AO2 T02010182
KLUL 211415Z AUTO 09004KT 10SM CLR 19/18 A3014 RMK AO2 T01920175
KLUL 211355Z AUTO 09004KT 10SM SCT016 SCT025 19/17 A3014 RMK AO2 T01870169
KLUL 211335Z AUTO 10005KT 10SM CLR 19/16 A3014 RMK AO2 T01850164
KLUL 211315Z AUTO 10005KT 10SM CLR 18/16 A3013 RMK AO2 T01780157
KLUL 211255Z AUTO 10005KT 10SM CLR 17/16 A3012 RMK AO2 T01720161